createdAt,value
2022-10-19T00:02:08.693Z,5.57
2022-10-19T00:04:35.297Z,5.00
2022-10-19T00:07:01.833Z,4.67
2022-10-19T00:09:29.224Z,6.53
2022-10-19T00:11:55.824Z,6.93
2022-10-19T00:14:23.791Z,4.80
2022-10-19T00:16:51.893Z,5.35
2022-10-19T00:19:25.161Z,5.23
2022-10-19T00:21:51.773Z,5.65
2022-10-19T00:24:19.013Z,5.53
2022-10-19T00:26:45.609Z,4.78
2022-10-19T00:29:13.555Z,6.75
2022-10-19T00:31:40.926Z,5.97
2022-10-19T00:34:07.560Z,4.28
2022-10-19T00:36:37.737Z,5.93
2022-10-19T00:39:06.815Z,5.68
2022-10-19T00:41:35.911Z,5.68
2022-10-19T00:44:03.763Z,6.73
2022-10-19T00:46:33.872Z,5.72
2022-10-19T00:49:12.968Z,4.88
2022-10-19T00:51:45.821Z,4.72
2022-10-19T00:54:12.721Z,4.35
2022-10-19T00:56:41.058Z,4.80
2022-10-19T00:59:08.146Z,5.65
2022-10-19T01:01:35.056Z,4.57
2022-10-19T01:04:02.119Z,6.05
2022-10-19T01:06:28.921Z,5.82
2022-10-19T01:08:55.486Z,4.97
2022-10-19T01:11:40.060Z,4.88
2022-10-19T01:14:18.593Z,6.72
2022-10-19T01:17:05.493Z,5.45
2022-10-19T01:19:53.821Z,4.70
2022-10-19T01:22:48.066Z,6.57
2022-10-19T01:25:17.651Z,6.32
2022-10-19T01:27:57.056Z,7.13
2022-10-19T01:30:45.287Z,5.65
2022-10-19T01:33:24.313Z,4.68
2022-10-19T01:36:03.133Z,4.53
2022-10-19T01:39:19.159Z,5.53
2022-10-19T01:42:03.590Z,4.90
2022-10-19T01:44:42.194Z,6.22
2022-10-19T01:47:14.801Z,4.45
2022-10-19T01:49:53.493Z,9.23
2022-10-19T01:52:21.116Z,5.78
2022-10-19T01:54:51.193Z,5.80
2022-10-19T01:57:23.345Z,6.32
2022-10-19T01:59:50.201Z,5.72
2022-10-19T02:02:17.371Z,4.20
2022-10-19T02:04:44.488Z,5.30
2022-10-19T02:07:11.782Z,5.03
2022-10-19T02:09:38.346Z,6.10
2022-10-19T02:12:09.167Z,4.72
2022-10-19T02:14:41.219Z,5.63
2022-10-19T02:17:10.819Z,4.10
2022-10-19T02:19:38.913Z,5.47
2022-10-19T02:22:05.639Z,4.63
2022-10-19T02:24:32.217Z,5.70
2022-10-19T02:27:00.566Z,5.30
2022-10-19T02:29:27.626Z,4.82
2022-10-19T02:31:54.225Z,4.53
2022-10-19T02:34:20.805Z,3.60
2022-10-19T02:36:47.399Z,9.13
2022-10-19T02:39:14.328Z,5.00
2022-10-19T02:41:53.075Z,4.57
2022-10-19T02:44:24.000Z,4.30
2022-10-19T02:46:55.785Z,5.72
2022-10-19T02:49:22.672Z,5.57
2022-10-19T02:52:01.006Z,4.43
2022-10-19T02:54:28.489Z,4.95
2022-10-19T02:56:55.732Z,5.50
2022-10-19T02:59:22.636Z,4.70
2022-10-19T03:01:49.438Z,6.03
2022-10-19T03:04:16.099Z,4.50
2022-10-19T03:06:42.832Z,4.90
2022-10-19T03:09:09.975Z,5.60
2022-10-19T03:11:36.560Z,5.45
2022-10-19T03:14:03.136Z,5.32
2022-10-19T03:16:29.681Z,5.10
2022-10-19T03:18:56.282Z,7.22
2022-10-19T03:21:22.868Z,3.92
2022-10-19T03:23:49.469Z,5.45
2022-10-19T03:26:17.669Z,4.78
2022-10-19T03:28:44.349Z,5.07
2022-10-19T03:31:11.010Z,6.53
2022-10-19T03:33:37.586Z,6.38
2022-10-19T03:36:23.270Z,4.47
2022-10-19T03:38:51.695Z,4.63
2022-10-19T03:41:19.578Z,5.23
2022-10-19T03:43:46.399Z,6.25
2022-10-19T03:46:13.038Z,5.72
2022-10-19T03:48:39.698Z,5.18
2022-10-19T03:51:09.415Z,3.67
2022-10-19T03:53:36.314Z,4.20
2022-10-19T03:56:08.136Z,4.55
2022-10-19T03:58:37.136Z,5.38
2022-10-19T04:01:11.611Z,5.35
2022-10-19T04:03:38.448Z,5.07
2022-10-19T04:06:07.525Z,5.33
2022-10-19T04:08:34.474Z,4.00
2022-10-19T04:11:05.810Z,5.07
2022-10-19T04:13:33.120Z,4.32
2022-10-19T04:16:00.347Z,4.40
2022-10-19T04:18:27.127Z,4.97
2022-10-19T04:20:57.978Z,5.10
2022-10-19T04:23:26.917Z,4.82
2022-10-19T04:25:53.593Z,5.82
2022-10-19T04:28:20.238Z,3.65
2022-10-19T04:30:46.833Z,6.40
2022-10-19T04:33:13.517Z,5.30
2022-10-19T04:35:40.119Z,4.07
2022-10-19T04:38:06.705Z,4.32
2022-10-19T04:40:35.510Z,4.80
2022-10-19T04:43:02.460Z,3.63
2022-10-19T04:45:29.061Z,5.22
2022-10-19T04:47:56.631Z,5.15
2022-10-19T04:50:24.127Z,4.30
2022-10-19T04:52:50.753Z,6.55
2022-10-19T04:55:17.337Z,4.40
2022-10-19T04:57:43.922Z,4.72
2022-10-19T05:00:11.077Z,4.38
2022-10-19T05:02:41.956Z,9.52
2022-10-19T05:05:08.830Z,4.38
2022-10-19T05:07:35.788Z,4.53
2022-10-19T05:10:02.870Z,4.53
2022-10-19T05:12:29.436Z,3.92
2022-10-19T05:14:56.055Z,4.25
2022-10-19T05:17:22.614Z,4.63
2022-10-19T05:19:49.190Z,4.60
2022-10-19T05:22:15.747Z,4.53
2022-10-19T05:24:42.317Z,4.15
2022-10-19T05:27:08.878Z,4.55
2022-10-19T05:29:35.478Z,4.32
2022-10-19T05:32:02.033Z,5.90
2022-10-19T05:34:28.605Z,3.53
2022-10-19T05:36:56.151Z,4.25
2022-10-19T05:39:23.119Z,5.07
2022-10-19T05:41:49.867Z,4.00
2022-10-19T05:44:18.968Z,4.80
2022-10-19T05:46:45.995Z,3.22
2022-10-19T05:49:13.298Z,4.55
2022-10-19T05:51:40.221Z,3.50
2022-10-19T05:54:07.929Z,4.72
2022-10-19T05:56:34.494Z,5.00
2022-10-19T05:59:03.694Z,3.90
2022-10-19T06:01:30.822Z,3.22
2022-10-19T06:03:58.547Z,5.60
2022-10-19T06:06:26.167Z,5.72
2022-10-19T06:08:54.123Z,3.33
2022-10-19T06:11:23.110Z,4.65
2022-10-19T06:13:50.929Z,4.80
2022-10-19T06:16:18.938Z,6.25
2022-10-19T06:18:45.526Z,6.15
2022-10-19T06:21:17.947Z,4.80
2022-10-19T06:23:44.777Z,4.50
2022-10-19T06:26:13.357Z,3.47
2022-10-19T06:28:41.688Z,3.30
2022-10-19T06:31:09.373Z,3.35
2022-10-19T06:33:36.622Z,4.10
2022-10-19T06:36:11.736Z,4.00
2022-10-19T06:38:38.662Z,4.35
2022-10-19T06:41:05.561Z,3.28
2022-10-19T06:43:32.410Z,3.53
2022-10-19T06:45:59.170Z,4.00
2022-10-19T06:48:25.857Z,3.50
2022-10-19T06:50:59.351Z,3.55
2022-10-19T06:53:26.256Z,3.67
2022-10-19T06:55:53.108Z,4.18
2022-10-19T06:58:19.652Z,2.70
2022-10-19T07:00:46.328Z,3.03
2022-10-19T07:03:12.989Z,3.95
2022-10-19T07:05:39.585Z,3.92
2022-10-19T07:08:06.226Z,3.80
2022-10-19T07:10:32.833Z,3.40
2022-10-19T07:12:59.444Z,2.90
2022-10-19T07:15:26.100Z,3.47
2022-10-19T07:17:53.166Z,3.42
2022-10-19T07:20:19.739Z,2.80
2022-10-19T07:22:46.329Z,3.67
2022-10-19T07:25:12.959Z,3.45
2022-10-19T07:27:40.576Z,2.97
2022-10-19T07:30:07.891Z,3.70
2022-10-19T07:32:34.482Z,3.47
2022-10-19T07:35:01.055Z,3.33
2022-10-19T07:37:27.646Z,2.97
2022-10-19T07:39:54.228Z,3.22
2022-10-19T07:44:52.252Z,4.20
2022-10-19T07:47:19.333Z,4.30
2022-10-19T07:49:45.896Z,3.22
2022-10-19T07:52:12.543Z,4.68
2022-10-19T07:54:39.135Z,4.10
2022-10-19T07:57:05.744Z,3.67
2022-10-19T07:59:32.317Z,3.83
2022-10-19T08:02:02.335Z,4.07
2022-10-19T08:04:55.990Z,3.20
2022-10-19T08:07:15.969Z,2.20
2022-10-19T08:09:58.034Z,3.95
2022-10-19T08:12:24.642Z,5.00
2022-10-19T08:14:51.348Z,3.58
2022-10-19T08:17:17.972Z,4.47
2022-10-19T08:19:45.792Z,4.07
2022-10-19T08:22:12.729Z,3.88
2022-10-19T08:24:39.392Z,2.97
2022-10-19T08:27:05.989Z,4.28
2022-10-19T08:29:32.576Z,3.22
2022-10-19T08:31:59.534Z,3.00
2022-10-19T08:34:26.252Z,4.68
2022-10-19T08:36:52.849Z,2.87
2022-10-19T08:39:19.520Z,3.90
2022-10-19T08:42:01.272Z,4.95
2022-10-19T08:44:52.101Z,3.13
2022-10-19T08:47:40.395Z,5.10
2022-10-19T08:50:18.395Z,3.57
2022-10-19T08:52:47.849Z,2.50
2022-10-19T08:55:20.433Z,3.05
2022-10-19T08:57:57.617Z,2.65
2022-10-19T09:03:43.849Z,4.90
2022-10-19T09:06:30.928Z,3.70
2022-10-19T09:08:58.146Z,3.50
2022-10-19T09:11:27.762Z,3.05
2022-10-19T09:14:16.941Z,3.75
2022-10-19T09:16:43.571Z,3.30
2022-10-19T09:19:18.309Z,2.97
2022-10-19T09:21:49.725Z,4.05
2022-10-19T09:24:28.761Z,4.22
2022-10-19T09:27:00.552Z,3.35
2022-10-19T09:29:38.730Z,2.40
2022-10-19T09:32:14.420Z,2.55
2022-10-19T09:34:46.690Z,5.47
2022-10-19T09:37:21.216Z,3.92
2022-10-19T09:39:54.173Z,4.10
2022-10-19T09:42:30.182Z,3.50
2022-10-19T09:44:58.819Z,3.35
2022-10-19T09:47:36.061Z,2.92
2022-10-19T09:50:25.408Z,7.68
2022-10-19T09:53:05.536Z,4.35
2022-10-19T09:58:13.671Z,2.78
2022-10-19T10:00:44.909Z,3.13
2022-10-19T10:03:43.536Z,2.42
2022-10-19T10:06:14.506Z,2.33
2022-10-19T10:08:47.363Z,2.97
2022-10-19T10:11:37.773Z,4.75
2022-10-19T10:14:19.777Z,3.53
2022-10-19T10:16:46.782Z,2.80
2022-10-19T10:19:16.224Z,4.05
2022-10-19T10:21:47.904Z,2.63
2022-10-19T10:24:16.329Z,3.40
2022-10-19T10:26:48.940Z,3.15
2022-10-19T10:29:21.894Z,2.42
2022-10-19T10:32:09.303Z,2.65
2022-10-19T10:35:01.090Z,2.80
2022-10-19T10:37:46.974Z,3.72
2022-10-19T10:40:23.770Z,3.65
2022-10-19T10:42:51.876Z,2.72
2022-10-19T10:45:33.384Z,3.20
2022-10-19T10:48:15.025Z,3.97
2022-10-19T10:50:41.565Z,3.40
2022-10-19T10:53:37.248Z,3.38
2022-10-19T10:56:06.139Z,3.05
2022-10-19T10:58:47.669Z,2.70
2022-10-19T11:01:24.315Z,2.73
2022-10-19T11:04:15.562Z,3.08
2022-10-19T11:06:45.950Z,2.72
2022-10-19T11:09:51.396Z,3.42
2022-10-19T11:12:19.912Z,3.20
2022-10-19T11:14:46.417Z,3.00
2022-10-19T11:17:19.990Z,3.67
2022-10-19T11:19:46.700Z,2.65
2022-10-19T11:22:35.356Z,3.30
2022-10-19T11:25:05.039Z,2.30
2022-10-19T11:27:47.762Z,2.50
2022-10-19T11:30:18.368Z,2.25
2022-10-19T11:32:47.815Z,2.10
2022-10-19T11:35:41.837Z,3.63
2022-10-19T11:38:20.593Z,4.57
2022-10-19T11:41:33.518Z,3.13
2022-10-19T11:44:15.122Z,2.38
2022-10-19T11:47:09.091Z,3.85
2022-10-19T11:50:05.000Z,3.25
2022-10-19T11:52:53.415Z,5.32
2022-10-19T11:55:57.758Z,4.13
2022-10-19T11:58:35.084Z,4.18
2022-10-19T12:01:34.184Z,3.88
2022-10-19T12:05:09.444Z,2.30
2022-10-19T12:08:11.112Z,4.32
2022-10-19T12:11:07.040Z,3.00
2022-10-19T12:13:47.606Z,2.78
2022-10-19T12:16:14.936Z,3.22
2022-10-19T12:18:51.018Z,3.20
2022-10-19T12:21:27.852Z,3.60
2022-10-19T12:23:54.669Z,2.40
2022-10-19T12:26:22.366Z,3.40
2022-10-19T12:28:59.807Z,2.63
2022-10-19T12:31:27.517Z,2.55
2022-10-19T12:34:15.299Z,3.55
2022-10-19T12:37:03.851Z,3.30
2022-10-19T12:39:34.128Z,4.22
2022-10-19T12:42:00.617Z,3.78
2022-10-19T12:44:33.135Z,2.97
2022-10-19T12:47:08.642Z,3.38
2022-10-19T12:49:38.455Z,2.57
2022-10-19T12:52:07.789Z,4.80
2022-10-19T12:54:36.600Z,3.25
2022-10-19T12:57:04.477Z,2.40
2022-10-19T12:59:37.653Z,2.70
2022-10-19T13:02:06.528Z,4.00
2022-10-19T13:04:34.566Z,3.67
2022-10-19T13:07:03.914Z,2.30
2022-10-19T13:09:42.284Z,2.58
2022-10-19T13:12:17.816Z,2.40
2022-10-19T13:15:02.363Z,3.60
2022-10-19T13:17:37.953Z,2.47
2022-10-19T13:20:13.745Z,2.33
2022-10-19T13:22:40.447Z,2.88
2022-10-19T13:25:28.829Z,2.10
2022-10-19T13:27:57.433Z,2.33
2022-10-19T13:30:36.307Z,2.13
2022-10-19T13:33:24.723Z,2.55
2022-10-19T13:36:00.295Z,1.98
2022-10-19T13:38:59.025Z,2.17
2022-10-19T13:41:45.985Z,2.27
2022-10-19T13:44:18.500Z,2.88
2022-10-19T13:47:03.206Z,2.53
2022-10-19T13:49:36.210Z,2.30
2022-10-19T13:52:27.595Z,2.70
2022-10-19T13:55:00.131Z,2.93
2022-10-19T13:57:47.809Z,2.20
2022-10-19T14:00:37.180Z,1.90
2022-10-19T14:03:35.235Z,3.58
2022-10-19T14:06:11.495Z,3.30
2022-10-19T14:08:44.923Z,1.83
2022-10-19T14:11:35.670Z,3.67
2022-10-19T14:14:11.300Z,2.55
2022-10-19T14:16:46.579Z,2.28
2022-10-19T14:19:14.618Z,3.65
2022-10-19T14:21:41.263Z,3.27
2022-10-19T14:24:31.384Z,3.28
2022-10-19T14:27:00.659Z,2.53
2022-10-19T14:29:27.238Z,2.20
2022-10-19T14:31:54.079Z,2.33
2022-10-19T14:34:20.739Z,2.70
2022-10-19T14:36:49.132Z,3.22
2022-10-19T14:39:24.923Z,2.70
2022-10-19T14:41:54.991Z,2.30
2022-10-19T14:44:50.454Z,2.65
2022-10-19T14:47:23.629Z,2.73
2022-10-19T14:49:50.753Z,2.67
2022-10-19T14:52:25.736Z,2.20
2022-10-19T14:54:53.710Z,3.30
2022-10-19T14:57:29.488Z,2.50
2022-10-19T15:00:02.379Z,2.67
2022-10-19T15:02:32.595Z,2.28
2022-10-19T15:05:01.002Z,2.25
2022-10-19T15:07:36.352Z,2.83
2022-10-19T15:10:05.940Z,3.42
2022-10-19T15:12:38.139Z,2.53
2022-10-19T15:15:26.009Z,2.42
2022-10-19T15:18:00.557Z,2.55
2022-10-19T15:20:28.206Z,2.10
2022-10-19T15:22:56.288Z,2.25
2022-10-19T15:25:33.986Z,2.53
2022-10-19T15:28:36.159Z,2.22
2022-10-19T15:31:14.516Z,2.33
2022-10-19T15:33:45.458Z,2.50
2022-10-19T15:36:19.607Z,2.20
2022-10-19T15:39:11.402Z,2.60
2022-10-19T15:41:46.005Z,3.30
2022-10-19T15:44:34.173Z,2.70
2022-10-19T15:47:15.967Z,3.05
2022-10-19T15:49:42.535Z,2.97
2022-10-19T15:52:28.824Z,3.33
2022-10-19T15:54:57.406Z,2.70
2022-10-19T15:57:36.043Z,4.07
2022-10-19T16:00:11.218Z,2.40
2022-10-19T16:02:39.063Z,3.05
2022-10-19T16:07:37.538Z,2.80
2022-10-19T16:10:04.667Z,3.22
2022-10-19T16:12:31.236Z,2.40
2022-10-19T16:14:57.814Z,3.58
2022-10-19T16:17:24.624Z,3.17
2022-10-19T16:19:51.375Z,2.88
2022-10-19T16:22:17.961Z,2.40
2022-10-19T16:24:44.564Z,3.33
2022-10-19T16:27:15.136Z,2.55
2022-10-19T16:29:43.621Z,3.10
2022-10-19T16:32:10.369Z,1.83
2022-10-19T16:34:37.145Z,3.63
2022-10-19T16:37:06.674Z,3.38
2022-10-19T16:39:34.257Z,3.40
2022-10-19T16:42:01.014Z,1.90
2022-10-19T16:44:27.659Z,2.83
2022-10-19T16:46:56.736Z,6.32
2022-10-19T16:49:23.330Z,2.30
2022-10-19T16:51:52.044Z,2.72
2022-10-19T16:54:21.448Z,2.47
2022-10-19T16:56:48.600Z,2.88
2022-10-19T16:59:19.184Z,4.68
2022-10-19T17:01:46.489Z,2.03
2022-10-19T17:04:14.634Z,2.20
2022-10-19T17:06:41.498Z,3.83
2022-10-19T17:11:54.761Z,3.58
2022-10-19T17:14:21.333Z,1.80
2022-10-19T17:16:47.944Z,4.13
2022-10-19T17:19:14.644Z,2.43
2022-10-19T17:21:42.495Z,3.75
2022-10-19T17:24:18.461Z,3.03
2022-10-19T17:26:48.470Z,1.75
2022-10-19T17:29:15.140Z,2.40
2022-10-19T17:31:42.311Z,2.90
2022-10-19T17:34:09.338Z,2.42
2022-10-19T17:39:10.825Z,1.90
2022-10-19T17:41:37.456Z,2.30
2022-10-19T17:44:04.992Z,2.10
2022-10-19T17:46:34.059Z,2.40
2022-10-19T17:49:01.043Z,2.03
2022-10-19T17:51:29.910Z,2.83
2022-10-19T17:54:01.948Z,2.40
2022-10-19T17:56:29.346Z,2.23
2022-10-19T17:58:57.213Z,4.05
2022-10-19T18:01:24.177Z,2.05
2022-10-19T18:03:50.922Z,2.95
2022-10-19T18:06:22.917Z,3.20
2022-10-19T18:08:52.306Z,2.30
2022-10-19T18:11:25.155Z,2.88
2022-10-19T18:13:52.546Z,3.28
2022-10-19T18:16:22.156Z,2.05
2022-10-19T18:18:50.542Z,2.50
2022-10-19T18:21:20.293Z,3.07
2022-10-19T18:23:47.043Z,2.33
2022-10-19T18:26:19.849Z,2.15
2022-10-19T18:28:46.612Z,2.63
2022-10-19T18:31:23.968Z,2.90
2022-10-19T18:33:57.908Z,2.00
2022-10-19T18:36:24.781Z,3.47
2022-10-19T18:38:52.126Z,2.42
2022-10-19T18:41:18.984Z,2.58
2022-10-19T18:43:53.459Z,2.90
2022-10-19T18:46:21.558Z,2.13
2022-10-19T18:48:48.438Z,2.53
2022-10-19T18:51:15.616Z,3.15
2022-10-19T18:53:43.128Z,2.67
2022-10-19T18:56:11.869Z,2.30
2022-10-19T18:58:38.911Z,2.07
2022-10-19T19:01:19.778Z,4.40
2022-10-19T19:03:49.623Z,2.13
2022-10-19T19:06:42.473Z,2.17
2022-10-19T19:09:10.614Z,2.60
2022-10-19T19:11:40.807Z,2.33
2022-10-19T19:14:16.585Z,2.22
2022-10-19T19:16:44.340Z,2.47
2022-10-19T19:19:13.186Z,2.45
2022-10-19T19:21:43.541Z,2.40
2022-10-19T19:24:15.356Z,2.00
2022-10-19T19:26:48.188Z,2.22
2022-10-19T19:29:15.371Z,2.03
2022-10-19T19:31:41.982Z,2.08
2022-10-19T19:34:09.485Z,2.60
2022-10-19T19:39:14.425Z,2.72
2022-10-19T19:41:41.053Z,2.63
2022-10-19T19:44:07.641Z,2.42
2022-10-19T19:46:34.978Z,2.40
2022-10-19T19:49:03.050Z,2.43
2022-10-19T19:51:31.079Z,1.70
2022-10-19T19:53:58.037Z,2.42
2022-10-19T19:56:24.826Z,2.78
2022-10-19T19:58:56.911Z,5.18
2022-10-19T20:01:23.765Z,2.33
2022-10-19T20:03:50.542Z,2.05
2022-10-19T20:06:22.164Z,2.40
2022-10-19T20:08:51.889Z,2.58
2022-10-19T20:11:18.526Z,3.65
2022-10-19T20:13:45.852Z,2.03
2022-10-19T20:16:23.922Z,2.38
2022-10-19T20:18:59.856Z,2.40
2022-10-19T20:21:27.756Z,2.30
2022-10-19T20:23:54.467Z,2.10
2022-10-19T20:26:22.733Z,2.30
2022-10-19T20:28:49.785Z,2.03
2022-10-19T20:31:17.669Z,3.35
2022-10-19T20:33:45.263Z,1.88
2022-10-19T20:36:24.921Z,2.40
2022-10-19T20:38:54.288Z,1.90
2022-10-19T20:41:22.604Z,2.25
2022-10-19T20:43:49.302Z,1.83
2022-10-19T20:46:18.421Z,2.10
2022-10-19T20:48:45.558Z,2.80
2022-10-19T20:51:13.690Z,2.37
2022-10-19T20:53:40.494Z,2.65
2022-10-19T20:56:08.795Z,2.45
2022-10-19T20:58:37.194Z,2.20
2022-10-19T21:01:11.860Z,3.25
2022-10-19T21:03:38.624Z,2.77
2022-10-19T21:06:07.128Z,2.20
2022-10-19T21:08:35.435Z,2.20
2022-10-19T21:11:10.577Z,2.15
2022-10-19T21:13:37.159Z,7.63
2022-10-19T21:16:14.810Z,1.93
2022-10-19T21:18:41.772Z,2.38
2022-10-19T21:21:21.926Z,1.80
2022-10-19T21:23:50.990Z,1.98
2022-10-19T21:26:17.937Z,2.45
2022-10-19T21:28:48.972Z,1.90
2022-10-19T21:31:16.743Z,2.05
2022-10-19T21:33:43.790Z,2.00
2022-10-19T21:36:11.319Z,2.35
2022-10-19T21:38:37.988Z,1.90
2022-10-19T21:41:06.908Z,1.70
2022-10-19T21:43:34.165Z,2.00
2022-10-19T21:46:05.335Z,1.95
2022-10-19T21:48:32.595Z,1.90
2022-10-19T21:50:59.586Z,2.00
2022-10-19T21:53:26.548Z,2.17
2022-10-19T21:55:54.703Z,1.90
2022-10-19T21:58:24.414Z,2.38
2022-10-19T22:00:51.011Z,1.85
2022-10-19T22:03:18.481Z,2.13
2022-10-19T22:05:52.187Z,1.97
2022-10-19T22:08:18.757Z,1.90
2022-10-19T22:10:45.361Z,2.47
2022-10-19T22:13:12.117Z,2.00
2022-10-19T22:15:40.034Z,1.83
2022-10-19T22:18:06.834Z,2.70
2022-10-19T22:20:36.250Z,1.98
2022-10-19T22:23:04.548Z,2.10
2022-10-19T22:25:31.770Z,2.40
2022-10-19T22:27:58.691Z,1.92
2022-10-19T22:30:25.459Z,1.60
2022-10-19T22:32:52.124Z,1.70
2022-10-19T22:35:18.883Z,1.80
2022-10-19T22:37:45.460Z,2.30
2022-10-19T22:40:13.183Z,2.35
2022-10-19T22:42:39.801Z,2.10
2022-10-19T22:45:06.889Z,1.90
2022-10-19T22:47:33.442Z,1.90
2022-10-19T22:50:00.084Z,1.92
2022-10-19T22:52:26.674Z,1.90
2022-10-19T22:54:53.357Z,2.07
2022-10-19T22:57:19.910Z,1.80
2022-10-19T22:59:46.458Z,2.20
2022-10-19T23:02:13.040Z,2.40
2022-10-19T23:04:39.654Z,1.88
2022-10-19T23:07:06.247Z,4.03
2022-10-19T23:09:32.957Z,1.83
2022-10-19T23:11:59.547Z,2.10
2022-10-19T23:14:26.122Z,2.00
2022-10-19T23:16:52.697Z,2.35
2022-10-19T23:19:19.298Z,1.90
2022-10-19T23:21:45.868Z,2.58
2022-10-19T23:24:12.520Z,2.72
2022-10-19T23:26:39.101Z,1.90
2022-10-19T23:29:05.723Z,1.90
2022-10-19T23:31:32.975Z,2.93
2022-10-19T23:33:59.829Z,2.00
2022-10-19T23:36:28.320Z,1.80
2022-10-19T23:38:56.191Z,1.83
2022-10-19T23:41:22.810Z,1.90
2022-10-19T23:43:49.419Z,1.97
2022-10-19T23:46:15.986Z,2.38
2022-10-19T23:48:42.757Z,2.00
2022-10-19T23:51:12.642Z,1.90
2022-10-19T23:53:41.516Z,1.70
2022-10-19T23:56:28.852Z,2.10
2022-10-19T23:58:55.959Z,2.80
